地図

経路データ

SID SEASON NUMBER BASIN SUBBASIN NAME ISO_TIME NATURE LAT LON WMO_WIND WMO_PRES WMO_AGENCY TRACK_TYPE DIST2LAND LANDFALL IFLAG USA_AGENCY USA_ATCF_ID USA_LAT USA_LON USA_RECORD USA_STATUS USA_WIND USA_PRES USA_SSHS USA_R34_NE USA_R34_SE USA_R34_SW USA_R34_NW USA_R50_NE USA_R50_SE USA_R50_SW USA_R50_NW USA_R64_NE USA_R64_SE USA_R64_SW USA_R64_NW USA_POCI USA_ROCI USA_RMW USA_EYE TOKYO_LAT TOKYO_LON TOKYO_GRADE TOKYO_WIND TOKYO_PRES TOKYO_R50_DIR TOKYO_R50_LONG TOKYO_R50_SHORT TOKYO_R30_DIR TOKYO_R30_LONG TOKYO_R30_SHORT TOKYO_LAND CMA_LAT CMA_LON CMA_CAT CMA_WIND CMA_PRES HKO_LAT HKO_LON HKO_CAT HKO_WIND HKO_PRES NEWDELHI_LAT NEWDELHI_LON NEWDELHI_GRADE NEWDELHI_WIND NEWDELHI_PRES NEWDELHI_CI NEWDELHI_DP NEWDELHI_POCI REUNION_LAT REUNION_LON REUNION_TYPE REUNION_WIND REUNION_PRES REUNION_TNUM REUNION_CI REUNION_RMW REUNION_R34_NE REUNION_R34_SE REUNION_R34_SW REUNION_R34_NW REUNION_R50_NE REUNION_R50_SE REUNION_R50_SW REUNION_R50_NW REUNION_R64_NE REUNION_R64_SE REUNION_R64_SW REUNION_R64_NW BOM_LAT BOM_LON BOM_TYPE BOM_WIND BOM_PRES BOM_TNUM BOM_CI BOM_RMW BOM_R34_NE BOM_R34_SE BOM_R34_SW BOM_R34_NW BOM_R50_NE BOM_R50_SE BOM_R50_SW BOM_R50_NW BOM_R64_NE BOM_R64_SE BOM_R64_SW BOM_R64_NW BOM_ROCI BOM_POCI BOM_EYE BOM_POS_METHOD BOM_PRES_METHOD NADI_LAT NADI_LON NADI_CAT NADI_WIND NADI_PRES WELLINGTON_LAT WELLINGTON_LON WELLINGTON_WIND WELLINGTON_PRES DS824_LAT DS824_LON DS824_STAGE DS824_WIND DS824_PRES TD9636_LAT TD9636_LON TD9636_STAGE TD9636_WIND TD9636_PRES TD9635_LAT TD9635_LON TD9635_WIND TD9635_PRES TD9635_ROCI NEUMANN_LAT NEUMANN_LON NEUMANN_CLASS NEUMANN_WIND NEUMANN_PRES MLC_LAT MLC_LON MLC_CLASS MLC_WIND MLC_PRES USA_GUST BOM_GUST BOM_GUST_PER REUNION_GUST REUNION_GUST_PER USA_SEAHGT USA_SEARAD_NE USA_SEARAD_SE USA_SEARAD_SW USA_SEARAD_NW STORM_SPEED STORM_DIR
1978264N08147 1978 96 WP MM LOLA 1978-09-20 12:00:00 TS 7.60000 147.000 main 1086 1086 O________OO___ jtwc_wp WP211978 7.60000 147.000 TD 15 -1 7.60000 147.000 TC 15 7.60000 147.000 1 15 9 349
1978264N08147 1978 96 WP MM LOLA 1978-09-20 15:00:00 TS 8.05740 146.908 main 1142 1142 P________PP___ WP211978 8.06501 146.905 TD 15 -1 8.06501 146.905 TC 15 8.04218 146.913 1 15 9 348
1978264N08147 1978 96 WP MM LOLA 1978-09-20 18:00:00 TS 8.48917 146.803 main 1187 1187 O________OP___ jtwc_wp WP211978 8.50000 146.800 TD 15 -1 8.50000 146.800 TC 15 8.46750 146.810 1 15 9 344
1978264N08147 1978 96 WP MM LOLA 1978-09-20 21:00:00 TS 8.87301 146.674 main 1232 1232 P________PP___ WP211978 8.87997 146.672 TD 15 -1 8.87997 146.672 TC 15 8.85908 146.678 1 15 8 337
1978264N08147 1978 96 WP MM LOLA 1978-09-21 00:00:00 TS 9.20000 146.500 main 1266 1266 O________OO___ jtwc_wp WP211978 9.20000 146.500 TD 15 -1 9.20000 146.500 TC 15 9.20000 146.500 1 15 7 327
1978264N08147 1978 96 WP MM LOLA 1978-09-21 03:00:00 TS 9.47923 146.276 main 1300 1300 P________PP___ WP211978 9.47997 146.280 TD 15 -1 9.47997 146.280 TC 15 9.47776 146.267 1 15 7 315
1978264N08147 1978 96 WP MM LOLA 1978-09-21 06:00:00 TS 9.69913 145.994 main 1323 1323 O________OP___ jtwc_wp WP211978 9.70000 146.000 TD 15 -1 9.70000 146.000 TC 15 9.69740 145.983 1 15 7 303
1978264N08147 1978 96 WP MM LOLA 1978-09-21 09:00:00 TS 9.87110 145.667 main 1348 1348 P________PP___ WP211978 9.87248 145.672 TD 15 -1 9.87248 145.672 TC 15 9.86833 145.657 1 15 7 294
1978264N08147 1978 96 WP MM LOLA 1978-09-21 12:00:00 TS 10.0000 145.300 main 1363 1363 O________OO___ jtwc_wp WP211978 10.0000 145.300 TD 15 -1 10.0000 145.300 TC 15 10.0000 145.300 1 15 8 288
1978264N08147 1978 96 WP MM LOLA 1978-09-21 15:00:00 TS 10.1150 144.916 main 1379 1379 P________PP___ WP211978 10.1150 144.907 TD 15 -1 10.1150 144.907 TC 15 10.1150 144.933 1 15 8 284
1978264N08147 1978 96 WP MM LOLA 1978-09-21 18:00:00 TS 10.1983 144.512 main 1397 1397 O________OP___ jtwc_wp WP211978 10.2000 144.500 TD 15 -1 10.2000 144.500 TC 15 10.1949 144.537 1 15 8 280
1978264N08147 1978 96 WP MM LOLA 1978-09-21 21:00:00 TS 10.2558 144.108 main 1416 1416 P________PP___ WP211978 10.2575 144.100 TD 15 -1 10.2575 144.100 TC 15 10.2524 144.123 1 15 8 277
1978264N08147 1978 96 WP MM LOLA 1978-09-22 00:00:00 TS 10.3000 143.700 main 1426 1426 O________OO___ jtwc_wp WP211978 10.3000 143.700 TD 15 -1 10.3000 143.700 TC 15 10.3000 143.700 1 15 8 277
1978264N08147 1978 96 WP MM LOLA 1978-09-22 03:00:00 TS 10.3482 143.304 main 1436 1436 P________PP___ WP211978 10.3499 143.307 TD 15 -1 10.3499 143.307 TC 15 10.3447 143.298 1 15 8 277
1978264N08147 1978 96 WP MM LOLA 1978-09-22 06:00:00 TS 10.3949 142.896 main 1441 1426 O________OP___ jtwc_wp WP211978 10.4000 142.900 TD 15 -1 10.4000 142.900 TC 15 10.3846 142.887 1 15 8 276
1978264N08147 1978 96 WP MM LOLA 1978-09-22 09:00:00 TS 10.4390 142.462 main 1426 1419 P________PP___ WP211978 10.4424 142.465 TD 15 -1 10.4424 142.465 TC 15 10.4322 142.458 1 15 9 277
1978264N08147 1978 96 WP MM LOLA 1978-09-22 12:00:00 TS 10.5000 142.000 main 1419 1410 O________OO___ jtwc_wp WP211978 10.5000 142.000 TD 15 -1 10.5000 142.000 TC 15 10.5000 142.000 1 15 9 279
1978264N08147 1978 96 WP MM LOLA 1978-09-22 15:00:00 TS 10.5884 141.511 main 1415 1405 P________PP___ WP211978 10.5849 141.515 TD 15 -1 10.5849 141.515 TC 15 10.5953 141.504 1 16 10 282
1978264N08147 1978 96 WP MM LOLA 1978-09-22 18:00:00 TS 10.7041 140.993 main 1406 1395 O________OP___ jtwc_wp WP211978 10.7000 141.000 TD 15 -1 10.7000 141.000 TC 15 10.7124 140.980 1 17 11 283
1978264N08147 1978 96 WP MM LOLA 1978-09-22 21:00:00 TS 10.8394 140.447 main 1391 1390 P________PP___ WP211978 10.8350 140.450 TD 17 -1 10.8350 140.450 TC 17 10.8484 140.441 1 18 11 285
1978264N08147 1978 96 WP MM LOLA 1978-09-23 00:00:00 TS 11.0000 139.900 main 1394 1390 O________OO___ jtwc_wp WP211978 11.0000 139.900 TD 20 -1 11.0000 139.900 TC 20 11.0000 139.900 1 20 11 289
1978264N08147 1978 96 WP MM LOLA 1978-09-23 03:00:00 TS 11.1907 139.393 main 1398 1394 P________PP___ WP211978 11.1998 139.400 TD 20 -1 11.1998 139.400 TC 20 11.1725 139.379 1 20 11 291
1978264N08147 1978 96 WP MM LOLA 1978-09-23 06:00:00 TS 11.3857 138.886 main 1404 1359 O________OP___ jtwc_wp WP211978 11.4000 138.900 TD 20 -1 11.4000 138.900 TC 20 11.3570 138.858 1 20 11 290
1978264N08147 1978 96 WP MM LOLA 1978-09-23 09:00:00 TS 11.5560 138.349 main 1350 1299 P________PP___ WP211978 11.5649 138.357 TD 20 -1 11.5649 138.357 TC 20 11.5381 138.332 1 20 11 286
1978264N08147 1978 96 WP MM LOLA 1978-09-23 12:00:00 TS 11.7000 137.800 main 1299 1248 O________OO___ jtwc_wp WP211978 11.7000 137.800 TD 20 -1 11.7000 137.800 TC 20 11.7000 137.800 1 20 11 284
1978264N08147 1978 96 WP MM LOLA 1978-09-23 15:00:00 TS 11.8148 137.248 main 1238 1187 P________PP___ WP211978 11.8074 137.250 TD 20 -1 11.8074 137.250 TC 20 11.8296 137.245 1 20 11 281
1978264N08147 1978 96 WP MM LOLA 1978-09-23 18:00:00 TS 11.9125 136.695 main 1187 1137 O________OP___ jtwc_wp WP211978 11.9000 136.700 TD 20 -1 11.9000 136.700 TC 20 11.9374 136.685 1 20 11 280
1978264N08147 1978 96 WP MM LOLA 1978-09-23 21:00:00 TS 12.0138 136.134 main 1127 1086 P________PP___ WP211978 12.0075 136.135 TD 20 -1 12.0075 136.135 TC 20 12.0265 136.132 1 20 11 281
1978264N08147 1978 96 WP MM LOLA 1978-09-24 00:00:00 TS 12.1077 135.631 main 1075 1033 O_O______OO___ jtwc_wp WP211978 12.1000 135.600 TD 20 -1 12.2000 136.000 1 23 1006 12.1000 135.600 TC 20 12.1000 135.600 1 20 9 283
1978264N08147 1978 96 WP MM LOLA 1978-09-24 03:00:00 TS 12.2289 135.216 main 1033 991 P_P______PP___ WP211978 12.1573 135.142 TD 20 -1 12.6298 135.673 1 23 1005 12.1573 135.142 TC 20 12.1716 135.136 1 21 9 284
1978264N08147 1978 96 WP MM LOLA 1978-09-24 06:00:00 TS 12.3134 134.778 1006 tokyo main 991 937 OOO______OP___ jtwc_wp WP211978 12.2000 134.700 TD 20 -1 12.1000 134.500 2 1006 0 0 0 12.8000 135.200 1 23 1004 12.2000 134.700 TC 20 12.2287 134.687 1 22 9 275
1978264N08147 1978 96 WP MM LOLA 1978-09-24 09:00:00 TS 12.3134 134.263 main 937 873 PPP______PP___ WP211978 12.2573 134.230 TD 22 -1 12.1026 134.018 2 1006 0 0 12.5727 134.494 1 23 1004 12.2573 134.230 TC 22 12.2715 134.220 1 23 11 267
1978264N08147 1978 96 WP MM LOLA 1978-09-24 12:00:00 TS 12.2600 133.670 1006 tokyo main 873 808 OOOO_____OO___ jtwc_wp WP211978 12.3000 133.700 TD 25 -1 12.1000 133.500 2 1006 0 0 0 12.3000 133.700 1 23 1004 12.1000 133.700 TD 25 1000 12.3000 133.700 TC 25 12.3000 133.700 1 25 12 268
1978264N08147 1978 96 WP MM LOLA 1978-09-24 15:00:00 TS 12.2763 133.030 main 798 733 PPPP_____PP___ WP211978 12.3074 133.080 TD 25 -1 12.0924 132.922 2 1006 0 0 12.4423 132.986 1 26 1003 12.1026 133.070 TD 27 1000 12.3074 133.080 TC 25 12.3189 133.062 1 26 13 272
1978264N08147 1978 96 WP MM LOLA 1978-09-24 18:00:00 TS 12.2953 132.360 1006 tokyo main 733 659 OOOO_____OP___ jtwc_wp WP211978 12.3000 132.400 TD 25 -1 12.1000 132.300 2 1006 0 0 0 12.6000 132.300 1 29 1002 12.1000 132.400 TD 30 1000 12.3000 132.400 TC 25 12.3232 132.372 1 27 13 269
1978264N08147 1978 96 WP MM LOLA 1978-09-24 21:00:00 TS 12.2622 131.666 main 659 582 PPPP_____PP___ WP211978 12.3000 131.685 TD 27 -1 12.1425 131.650 2 1005 0 0 12.4224 131.627 1 29 1002 12.0926 131.677 TD 30 1000 12.3000 131.685 TC 27 12.3157 131.671 1 28 13 267
1978264N08147 1978 96 WP MM LOLA 1978-09-25 00:00:00 TS 12.2333 131.000 1004 tokyo main 582 529 OOOO_____OO___ jtwc_wp WP211978 12.3000 131.000 TD 30 -1 12.2000 131.000 2 1004 0 0 0 12.2000 131.000 1 29 1002 12.1000 131.000 TD 30 1000 12.3000 131.000 TC 30 12.3000 131.000 1 30 12 269
1978264N08147 1978 96 WP MM LOLA 1978-09-25 03:00:00 TS 12.2436 130.425 main 519 469 PPPP_____PP___ WP211978 12.3072 130.428 TD 30 -1 12.2574 130.385 2 1003 0 0 12.1623 130.435 1 29 1001 12.1497 130.470 TD 30 1000 12.3072 130.428 TC 30 12.2775 130.406 1 30 11 271
1978264N08147 1978 96 WP MM LOLA 1978-09-25 06:00:00 TS 12.2582 129.891 1002 tokyo main 469 414 OOOO_____OP___ jtwc_wp WP211978 12.3000 129.900 TD 30 -1 12.3000 129.800 2 1002 0 0 0 12.2000 129.900 1 29 1000 12.2000 130.000 TD 30 1000 12.3000 129.900 TC 30 12.2493 129.847 1 30 11 270
1978264N08147 1978 96 WP MM LOLA 1978-09-25 09:00:00 TS 12.2477 129.348 main 404 353 PPPP_____PP___ WP211978 12.2499 129.342 TD 30 -1 12.3074 129.235 2 1002 0 0 12.2574 129.343 1 29 1000 12.1999 129.507 TD 30 1000 12.2499 129.342 TC 30 12.2214 129.315 1 30 11 269
1978264N08147 1978 96 WP MM LOLA 1978-09-25 12:00:00 TS 12.2333 128.817 1002 tokyo main 353 303 OOOO_____OO___ jtwc_wp WP211978 12.2000 128.800 TD 30 -1 12.3000 128.700 2 1002 0 0 0 12.3000 128.800 1 29 1000 12.2000 129.000 TD 30 1000 12.2000 128.800 TC 30 12.2000 128.800 1 30 10 269
1978264N08147 1978 96 WP MM LOLA 1978-09-25 15:00:00 TS 12.2279 128.300 main 303 250 PPPP_____PP___ WP211978 12.1924 128.293 TD 30 -1 12.3149 128.178 2 1001 0 0 12.2574 128.292 1 29 999 12.2424 128.458 TD 30 999 12.1924 128.293 TC 30 12.1680 128.289 1 31 10 269
1978264N08147 1978 96 WP MM LOLA 1978-09-25 18:00:00 TS 12.2245 127.799 1000 tokyo main 250 195 OOOO_____OP___ jtwc_wp WP211978 12.2000 127.800 TD 30 -1 12.3000 127.700 2 1000 0 0 0 12.2000 127.800 1 29 998 12.3000 127.900 TD 30 998 12.2000 127.800 TC 30 12.1469 127.792 1 32 10 269
1978264N08147 1978 96 WP MM LOLA 1978-09-25 21:00:00 TS 12.2032 127.309 main 195 141 PPPP_____PP___ WP211978 12.1774 127.300 TD 32 -1 12.1773 127.307 2 998 0 0 12.1849 127.308 1 33 996 12.3499 127.342 TD 37 996 12.1774 127.300 TC 32 12.1524 127.299 1 33 10 270
1978264N08147 1978 96 WP MM LOLA 1978-09-26 00:00:00 TS 12.2167 126.817 35 996 tokyo main 141 87 OOOO_____OO___ jtwc_wp WP211978 12.2000 126.800 TS 35 0 12.1000 126.900 3 35 996 0 9 100 100 0 12.2000 126.800 2 38 995 12.4000 126.800 TS 45 995 12.2000 126.800 TC 35 12.2000 126.800 2 35 10 276
1978264N08147 1978 96 WP MM LOLA 1978-09-26 03:00:00 TS 12.3028 126.308 main 87 39 PPPP_____PP___ WP211978 12.3274 126.308 TS 37 0 12.2050 126.380 3 40 994 0 9 115 115 12.2275 126.250 2 38 992 12.4272 126.315 TS 47 992 12.3274 126.308 TC 37 12.3025 126.286 2 37 10 282
1978264N08147 1978 96 WP MM LOLA 1978-09-26 06:00:00 TS 12.4412 125.778 45 992 tokyo main 39 11 OOOO_____OP___ jtwc_wp WP211978 12.5000 125.800 TS 40 0 12.4000 125.800 3 45 992 0 9 130 130 0 12.3000 125.700 2 38 990 12.5000 125.800 STS 50 990 12.5000 125.800 TC 40 12.4471 125.765 2 40 11 286
1978264N08147 1978 96 WP MM LOLA 1978-09-26 09:00:00 TS 12.6064 125.209 main 11 11 PPPP_____PP___ WP211978 12.6499 125.257 TS 42 0 12.6077 125.163 3 45 991 0 9 140 140 12.4274 125.185 2 38 990 12.6851 125.158 STS 50 987 12.6499 125.257 TC 42 12.6181 125.236 2 42 12 287
1978264N08147 1978 96 WP MM LOLA 1978-09-26 12:00:00 TS 12.7833 124.650 45 990 tokyo main 35 10 OOOO_____OO___ jtwc_wp WP211978 12.8000 124.700 TS 45 0 12.8000 124.600 3 45 990 0 9 150 150 0 12.6000 124.700 2 38 990 12.9000 124.500 STS 50 985 12.8000 124.700 TC 45 12.8000 124.700 2 45 11 288
1978264N08147 1978 96 WP MM LOLA 1978-09-26 15:00:00 TS 12.9291 124.169 main 10 0 PPPP_____PP___ WP211978 12.9424 124.150 TS 47 0 12.8843 124.337 3 45 985 0 9 150 150 12.7847 124.280 2 38 990 13.0572 123.942 STS 50 982 12.9424 124.150 TC 47 12.9635 124.153 2 46 10 288
1978264N08147 1978 96 WP MM LOLA 1978-09-26 18:00:00 TS 13.0891 123.667 45 980 tokyo main 0 0 OOOO_____OP___ jtwc_wp WP211978 13.1000 123.600 TS 50 0 13.0000 124.000 3 45 980 0 9 150 150 0 13.0000 123.800 2 38 990 13.2000 123.400 STS 50 980 13.1000 123.600 TC 50 13.1347 123.600 2 47 12 289
1978264N08147 1978 96 WP MM LOLA 1978-09-26 21:00:00 TS 13.2987 123.037 main 24 0 PPPP_____PP___ WP211978 13.2924 123.050 TS 50 0 13.2934 123.173 3 47 980 0 9 175 175 13.2578 123.100 2 43 987 13.3425 122.800 STS 52 982 13.2924 123.050 TC 50 13.3135 123.047 2 48 13 289
1978264N08147 1978 96 WP MM LOLA 1978-09-27 00:00:00 TS 13.5167 122.400 50 980 tokyo main 0 0 OOOO_____OO___ jtwc_wp WP211978 13.5000 122.500 TS 50 0 13.6000 122.300 4 50 980 0 9 200 200 0 13.5000 122.400 3 48 985 13.5000 122.200 STS 55 985 13.5000 122.500 TC 50 13.5000 122.500 2 50 12 290
1978264N08147 1978 96 WP MM LOLA 1978-09-27 03:00:00 TS 13.7035 121.872 main 24 0 PPPP_____PP___ WP211978 13.6999 121.942 TS 50 0 13.7719 121.797 4 50 980 0 9 200 200 13.6570 121.942 3 48 985 13.6999 121.635 STS 55 985 13.6999 121.942 TC 50 13.6923 121.972 2 50 11 290
1978264N08147 1978 96 WP MM LOLA 1978-09-27 06:00:00 TS 13.8820 121.375 50 980 tokyo main 0 0 OOOO_____OP___ jtwc_wp WP211978 13.9000 121.400 TS 50 0 13.9000 121.400 4 50 980 0 9 200 200 0 13.8000 121.500 3 48 985 13.9000 121.100 STS 55 985 13.9000 121.400 TC 50 13.8919 121.450 2 50 11 290
1978264N08147 1978 96 WP MM LOLA 1978-09-27 09:00:00 TS 14.0595 120.855 main 0 0 PPPP_____PP___ WP211978 14.0998 120.900 TS 50 0 14.0272 120.937 4 52 980 0 9 200 200 13.9851 120.872 3 53 982 14.0498 120.592 STS 55 985 14.0998 120.900 TC 50 14.0955 120.928 2 50 11 290
1978264N08147 1978 96 WP MM LOLA 1978-09-27 12:00:00 TS 14.2500 120.317 55 980 tokyo main 24 24 OOOO_____OO___ jtwc_wp WP211978 14.3000 120.400 TS 50 0 14.2000 120.400 4 55 980 9 50 50 9 200 200 0 14.2000 120.200 3 58 980 14.2000 120.100 STS 55 985 14.3000 120.400 TC 50 14.3000 120.400 2 50 12 291
1978264N08147 1978 96 WP MM LOLA 1978-09-27 15:00:00 TS 14.4750 119.738 main 54 54 PPPP_____PP___ WP211978 14.4999 119.857 TS 50 0 14.5078 119.693 4 55 980 9 60 60 9 200 200 14.4574 119.578 3 58 980 14.3848 119.607 STS 55 985 14.4999 119.857 TC 50 14.5000 119.837 2 51 12 292
1978264N08147 1978 96 WP MM LOLA 1978-09-27 18:00:00 TS 14.7000 119.162 55 980 tokyo main 97 97 OOOO_____OP___ jtwc_wp WP211978 14.7000 119.300 TS 50 0 14.8000 119.000 4 55 980 9 70 70 9 200 200 0 14.7000 119.000 3 58 980 14.6000 119.100 STS 55 985 14.7000 119.300 TC 50 14.7001 119.270 2 52 12 291
1978264N08147 1978 96 WP MM LOLA 1978-09-27 21:00:00 TS 14.8870 118.619 main 150 150 PPPP_____PP___ WP211978 14.9000 118.735 TS 52 0 14.9146 118.520 4 55 980 9 70 70 9 225 225 14.8573 118.477 3 58 980 14.8501 118.528 STS 55 985 14.9000 118.735 TC 52 14.9001 118.718 2 53 11 290
1978264N08147 1978 96 WP MM LOLA 1978-09-28 00:00:00 TS 15.0667 118.117 55 980 tokyo main 196 196 OOOO_____OO___ jtwc_wp WP211978 15.1000 118.200 TS 55 0 15.0000 118.100 4 55 980 9 70 70 9 250 250 0 15.0000 118.000 3 58 980 15.1000 118.000 STS 55 985 15.1000 118.200 TC 55 15.1000 118.200 2 55 10 292
1978264N08147 1978 96 WP MM LOLA 1978-09-28 03:00:00 TS 15.2628 117.655 main 228 228 PPPP_____PP___ WP211978 15.2999 117.727 TS 55 0 15.1776 117.585 4 55 980 9 70 70 9 250 250 15.1849 117.527 3 58 980 15.3072 117.627 STS 57 982 15.2999 117.727 TC 55 15.3075 117.735 2 56 9 295
1978264N08147 1978 96 WP MM LOLA 1978-09-28 06:00:00 TS 15.4690 117.234 55 980 tokyo main 273 273 OOOO_____OP___ jtwc_wp WP211978 15.5000 117.300 TS 55 0 15.4000 117.100 4 55 980 9 70 70 9 250 250 0 15.4000 117.100 3 58 980 15.5000 117.300 STS 60 980 15.5000 117.300 TC 55 15.5143 117.305 2 57 9 299
1978264N08147 1978 96 WP MM LOLA 1978-09-28 09:00:00 TS 15.6918 116.838 main 312 312 PPPP_____PP___ WP211978 15.7074 116.892 TS 57 0 15.6649 116.713 4 57 977 9 72 72 9 250 250 15.6499 116.727 3 58 977 15.7075 116.907 STS 62 977 15.7074 116.892 TC 57 15.7139 116.897 2 58 9 300
1978264N08147 1978 96 WP MM LOLA 1978-09-28 12:00:00 TS 15.9000 116.467 60 975 tokyo main 342 342 OOOO_____OO___ jtwc_wp WP211978 15.9000 116.500 TS 60 0 15.9000 116.400 4 60 975 9 75 75 9 250 250 0 15.9000 116.400 3 58 975 15.9000 116.500 T 65 975 15.9000 116.500 TC 60 15.9000 116.500 2 60 8 298
1978264N08147 1978 96 WP MM LOLA 1978-09-28 15:00:00 TS 16.0617 116.112 main 384 384 PPPP_____PP___ WP211978 16.0574 116.100 TS 60 0 16.0148 116.165 4 60 972 9 82 82 9 250 250 16.1223 116.115 3 63 972 16.0499 116.107 T 65 972 16.0574 116.100 TC 60 16.0682 116.084 2 61 8 294
1978264N08147 1978 96 WP MM LOLA 1978-09-28 18:00:00 TS 16.2037 115.746 60 970 tokyo main 428 428 OOOO_____OP___ jtwc_wp WP211978 16.2000 115.700 TS 60 0 16.1000 115.900 4 60 970 9 90 90 9 250 250 0 16.3000 115.800 4 68 970 16.2000 115.700 T 65 970 16.2000 115.700 TC 60 16.2223 115.677 2 62 8 291
1978264N08147 1978 96 WP MM LOLA 1978-09-28 21:00:00 TS 16.3538 115.319 main 472 472 PPPP_____PP___ WP211978 16.3499 115.300 TS 62 0 16.2427 115.458 4 62 967 9 95 95 9 250 250 16.4077 115.350 4 68 967 16.4076 115.228 T 65 967 16.3499 115.300 TC 62 16.3652 115.281 2 63 9 290
1978264N08147 1978 96 WP MM LOLA 1978-09-29 00:00:00 TS 16.5000 114.900 65 965 tokyo main 515 499 OOOO_____OO___ jtwc_wp WP211978 16.5000 114.900 TY 65 1 16.4000 115.000 5 65 965 9 100 100 9 250 250 0 16.5000 114.900 4 68 965 16.6000 114.800 T 65 965 16.5000 114.900 TC 65 16.5000 114.900 4 65 8 291
1978264N08147 1978 96 WP MM LOLA 1978-09-29 03:00:00 TS 16.6443 114.541 main 490 451 PPPP_____PP___ WP211978 16.6575 114.485 TY 65 1 16.5498 114.685 5 67 965 9 100 100 9 275 275 16.6424 114.570 4 68 965 16.7224 114.512 T 65 965 16.6575 114.485 TC 65 16.6362 114.507 4 66 7 293
1978264N08147 1978 96 WP MM LOLA 1978-09-29 06:00:00 TS 16.7775 114.222 70 965 tokyo main 451 417 OOOO_____OP___ jtwc_wp WP211978 16.8000 114.100 TY 65 1 16.7000 114.400 5 70 965 9 100 100 9 300 300 0 16.8000 114.300 4 68 965 16.8000 114.300 T 65 965 16.8000 114.100 TC 65 16.7650 114.132 4 67 6 293
1978264N08147 1978 96 WP MM LOLA 1978-09-29 09:00:00 TS 16.8968 113.923 main 417 394 PPPP_____PP___ WP211978 16.9074 113.770 TY 67 1 16.8650 114.058 5 70 965 9 100 100 9 300 300 16.9649 114.043 4 72 965 16.8499 114.107 T 67 967 16.9074 113.770 TC 67 16.8863 113.792 4 68 6 292
1978264N08147 1978 96 WP MM LOLA 1978-09-29 12:00:00 TS 17.0000 113.650 70 965 tokyo main 394 360 OOOO_____OO___ jtwc_wp WP211978 17.0000 113.500 TY 70 1 17.0000 113.700 5 70 965 9 100 100 9 300 300 0 17.1000 113.800 4 77 965 16.9000 113.900 T 70 970 17.0000 113.500 TC 70 17.0000 113.500 4 70 6 290
1978264N08147 1978 96 WP MM LOLA 1978-09-29 15:00:00 TS 17.0843 113.379 main 360 337 PPPP_____PP___ WP211978 17.0999 113.277 TY 70 1 17.0651 113.320 5 70 967 9 100 100 9 300 300 17.1575 113.535 4 77 965 16.9926 113.600 T 72 970 17.0999 113.277 TC 70 17.0906 113.266 4 70 5 289
1978264N08147 1978 96 WP MM LOLA 1978-09-29 18:00:00 TS 17.1629 113.147 70 970 tokyo main 328 319 OOOO_____OP___ jtwc_wp WP211978 17.2000 113.100 TY 70 1 17.1000 113.000 5 70 970 9 100 100 9 300 300 0 17.2000 113.300 4 77 965 17.1000 113.300 T 75 970 17.2000 113.100 TC 70 17.1771 113.082 4 70 4 292
1978264N08147 1978 96 WP MM LOLA 1978-09-29 21:00:00 TS 17.2429 112.974 main 319 295 PPPP_____PP___ WP211978 17.2850 112.935 TY 70 1 17.1274 112.812 5 70 970 9 100 100 9 300 300 17.2849 113.142 4 77 965 17.1999 113.085 T 75 970 17.2850 112.935 TC 70 17.2751 112.932 4 70 4 302
1978264N08147 1978 96 WP MM LOLA 1978-09-30 00:00:00 TS 17.3500 112.833 70 970 tokyo main 289 274 OOOO_____OO___ jtwc_wp WP211978 17.4000 112.800 TY 70 1 17.2000 112.700 5 70 970 9 100 100 9 300 300 0 17.4000 113.000 4 77 965 17.3000 112.900 T 75 970 17.4000 112.800 TC 70 17.4000 112.800 4 70 4 314
1978264N08147 1978 96 WP MM LOLA 1978-09-30 03:00:00 TS 17.5071 112.692 main 274 253 PPPP_____PP___ WP211978 17.5850 112.700 TY 72 1 17.3700 112.585 5 70 970 9 100 100 9 300 300 17.5425 112.808 4 77 965 17.3850 112.692 T 72 970 17.5850 112.700 TC 72 17.5752 112.665 4 71 4 323
1978264N08147 1978 96 WP MM LOLA 1978-09-30 06:00:00 TS 17.6962 112.557 70 970 tokyo main 253 224 OOOO_____OP___ jtwc_wp WP211978 17.8000 112.600 TY 75 1 17.6000 112.500 5 70 970 9 100 100 9 300 300 0 17.7000 112.600 4 77 965 17.5000 112.500 T 70 970 17.8000 112.600 TC 75 17.7774 112.542 4 72 5 327
1978264N08147 1978 96 WP MM LOLA 1978-09-30 09:00:00 TS 17.9010 112.423 main 224 205 PPPP_____PP___ WP211978 18.0075 112.458 TY 75 1 17.8500 112.457 5 70 970 9 100 100 9 300 300 17.8575 112.400 4 77 965 17.6925 112.343 T 70 970 18.0075 112.458 TC 75 17.9909 112.424 4 73 5 327
1978264N08147 1978 96 WP MM LOLA 1978-09-30 12:00:00 TS 18.1000 112.283 70 970 tokyo main 205 181 OOOO_____OO___ jtwc_wp WP211978 18.2000 112.300 TY 75 1 18.1000 112.400 5 70 970 9 100 100 9 300 300 0 18.0000 112.200 4 77 965 17.9000 112.200 T 70 970 18.2000 112.300 TC 75 18.2000 112.300 4 75 5 322
1978264N08147 1978 96 WP MM LOLA 1978-09-30 15:00:00 TS 18.2546 112.134 main 176 162 PPPP_____PP___ WP211978 18.3500 112.150 TY 75 1 18.3150 112.273 5 70 970 9 85 85 9 250 250 18.0850 112.000 4 77 965 18.0500 112.050 T 70 970 18.3500 112.150 TC 75 18.3779 112.181 4 73 4 316
1978264N08147 1978 96 WP MM LOLA 1978-09-30 18:00:00 TS 18.4083 111.975 70 970 tokyo main 162 134 OOOO_____OP___ jtwc_wp WP211978 18.5000 112.000 TY 75 1 18.5000 112.100 5 70 970 9 70 70 9 200 200 0 18.2000 111.800 4 77 965 18.2000 111.900 T 70 970 18.5000 112.000 TC 75 18.5497 112.052 4 72 5 319
1978264N08147 1978 96 WP MM LOLA 1978-09-30 21:00:00 TS 18.5936 111.819 main 134 107 PPPP_____PP___ WP211978 18.6924 111.872 TY 72 1 18.6575 111.907 5 70 970 9 70 70 9 200 200 18.4275 111.607 4 72 967 18.3700 111.757 T 67 970 18.6924 111.872 TC 72 18.7216 111.897 4 71 5 320
1978264N08147 1978 96 WP MM LOLA 1978-10-01 00:00:00 TS 18.8000 111.633 70 970 tokyo main 107 76 OOOO_____OO___ jtwc_wp WP211978 18.9000 111.700 TY 70 1 18.8000 111.700 5 70 970 9 70 70 9 200 200 0 18.7000 111.400 4 68 970 18.6000 111.600 T 65 970 18.9000 111.700 TC 70 18.9000 111.700 4 70 6 317
1978264N08147 1978 96 WP MM LOLA 1978-10-01 03:00:00 TS 19.0270 111.385 main 76 39 PPPP_____PP___ WP211978 19.1000 111.423 TY 67 1 18.9425 111.500 5 70 972 9 80 80 9 225 175 18.9726 111.135 4 68 970 18.9500 111.400 T 65 970 19.1000 111.423 TC 67 19.0971 111.431 4 67 7 313
1978264N08147 1978 96 WP MM LOLA 1978-10-01 06:00:00 TS 19.2501 111.120 70 975 tokyo main 30 11 OOOO_____OP___ jtwc_wp WP211978 19.3000 111.100 TY 65 1 19.1000 111.300 5 70 975 9 90 90 1 250 150 0 19.2000 110.900 4 68 970 19.3000 111.200 T 65 970 19.3000 111.100 TC 65 19.3004 111.123 4 65 6 311
1978264N08147 1978 96 WP MM LOLA 1978-10-01 09:00:00 TS 19.4401 110.885 main 11 0 PPPP_____PP___ WP211978 19.5075 110.785 TY 62 0 19.2925 111.100 5 67 975 9 90 90 1 250 150 19.3074 110.785 4 63 972 19.5224 111.050 T 65 970 19.5075 110.785 TC 62 19.5034 110.803 4 62 6 311
1978264N08147 1978 96 WP MM LOLA 1978-10-01 12:00:00 TS 19.6167 110.667 65 975 tokyo main 0 0 OOOO_____OO___ jtwc_wp WP211978 19.7000 110.500 TS 60 0 19.5000 110.900 5 65 975 9 90 90 2 250 150 0 19.4000 110.700 3 58 975 19.7000 110.900 T 65 970 19.7000 110.500 TC 60 19.7000 110.500 2 60 5 312
1978264N08147 1978 96 WP MM LOLA 1978-10-01 15:00:00 TS 19.7943 110.474 main 0 0 PPPP_____PP___ WP211978 19.8499 110.292 TS 60 0 19.7000 110.700 5 65 975 9 70 70 2 250 150 19.5850 110.572 3 53 975 19.9075 110.715 T 62 970 19.8499 110.292 TC 60 19.8737 110.269 2 60 5 314
1978264N08147 1978 96 WP MM LOLA 1978-10-01 18:00:00 TS 19.9737 110.276 65 975 tokyo main 0 0 OOOO_____OP___ jtwc_wp WP211978 20.0000 110.100 TS 60 0 19.9000 110.500 5 65 975 9 50 50 2 250 150 0 19.8000 110.400 3 48 975 20.1000 110.500 STS 60 970 20.0000 110.100 TC 60 20.0419 110.057 2 60 5 312
1978264N08147 1978 96 WP MM LOLA 1978-10-01 21:00:00 TS 20.1544 110.053 main 11 0 PPPP_____PP___ WP211978 20.1925 109.865 TS 60 0 20.0999 110.315 5 62 975 9 55 55 2 185 135 19.9850 110.165 3 48 975 20.2425 110.265 STS 57 975 20.1925 109.865 TC 60 20.2143 109.841 2 60 6 310
1978264N08147 1978 96 WP MM LOLA 1978-10-02 00:00:00 TS 20.3500 109.800 60 975 tokyo main 11 10 OOOO_____OO___ jtwc_wp WP211978 20.4000 109.600 TS 60 0 20.3000 110.100 4 60 975 9 60 60 9 120 120 0 20.2000 109.900 3 48 975 20.4000 110.000 STS 55 980 20.4000 109.600 TC 60 20.4000 109.600 2 60 6 311
1978264N08147 1978 96 WP MM LOLA 1978-10-02 03:00:00 TS 20.5737 109.529 main 30 30 PPPP_____PP___ WP211978 20.5924 109.315 TS 57 0 20.4924 109.837 4 57 977 9 55 55 9 120 120 20.4998 109.680 3 48 975 20.6424 109.715 STS 52 982 20.5924 109.315 TC 57 20.6228 109.312 2 56 7 310
1978264N08147 1978 96 WP MM LOLA 1978-10-02 06:00:00 TS 20.8096 109.216 55 980 tokyo main 51 49 OOOO_____OP___ jtwc_wp WP211978 20.8000 109.000 TS 55 0 20.7000 109.500 4 55 980 9 50 50 9 120 120 0 20.8000 109.400 3 48 975 20.9000 109.400 STS 50 985 20.8000 109.000 TC 55 20.8574 108.995 2 52 8 307
1978264N08147 1978 96 WP MM LOLA 1978-10-02 09:00:00 TS 21.0547 108.852 main 45 33 PPPP_____PP___ WP211978 21.0649 108.665 TS 50 0 20.9575 109.073 4 52 982 9 9 120 120 21.0375 108.988 3 48 977 21.1149 109.065 STS 47 987 21.0649 108.665 TC 50 21.0883 108.656 2 48 8 302
1978264N08147 1978 96 WP MM LOLA 1978-10-02 12:00:00 TS 21.2619 108.452 50 985 tokyo main 33 11 OOOO_____OO___ jtwc_wp WP211978 21.3000 108.300 TS 45 0 21.2000 108.600 4 50 985 0 9 120 120 0 21.2000 108.500 3 48 980 21.3000 108.700 TS 45 990 21.3000 108.300 TC 45 21.3000 108.300 2 45 8 295
1978264N08147 1978 96 WP MM LOLA 1978-10-02 15:00:00 TS 21.4022 108.036 main 10 0 PPPP_____PP___ WP211978 21.4327 107.907 TS 42 0 21.3872 108.165 4 45 988 0 9 110 110 21.2800 108.000 3 43 985 21.4577 108.308 TS 37 992 21.4327 107.907 TC 42 21.4810 107.934 2 8 285
1978264N08147 1978 96 WP MM LOLA 1978-10-02 18:00:00 TS 21.4791 107.599 40 992 tokyo main 0 0 OOOO_____OP___ jtwc_wp WP211978 21.5000 107.500 TD 40 0 21.5000 107.700 3 40 992 0 9 100 100 0 21.3000 107.500 2 38 990 21.6000 107.900 TD 30 995 21.5000 107.500 TC 40 21.6356 107.560 2 9 275
1978264N08147 1978 96 WP MM LOLA 1978-10-02 21:00:00 TS 21.4805 107.104 main 0 0 _PP_______P___ WP211978 TD -1 21.5003 107.127 3 996 0 9 21.3148 107.043 2 33 995 TD TC 21.7725 107.182 2 9 269
1978264N08147 1978 96 WP MM LOLA 1978-10-03 00:00:00 TS 21.4556 106.622 1000 tokyo main 0 0 _OO_______O___ 21.5000 106.600 2 1000 0 0 0 21.3000 106.600 1 29 1000 21.9000 106.800 6 8 268
1978264N08147 1978 96 WP MM LOLA 1978-10-03 03:00:00 TS 21.4459 106.225 main 0 0 _PP___________ 21.6345 106.293 2 1002 0 0 21.2573 106.157 1 26 1001 6 7 274
1978264N08147 1978 96 WP MM LOLA 1978-10-03 06:00:00 TS 21.5000 105.850 1004 tokyo main 0 0 _OO___________ 21.8000 106.000 2 1004 0 0 0 21.2000 105.700 1 23 1002 6 8 277
1978264N08147 1978 96 WP MM LOLA 1978-10-03 09:00:00 TS 21.5402 105.343 main 0 0 _PP___________ 21.9228 105.500 2 1004 0 0 21.1576 105.185 1 23 1002 6 9 273
1978264N08147 1978 96 WP MM LOLA 1978-10-03 12:00:00 TS 21.5500 104.850 1004 tokyo main 0 0 _OO___________ 22.0000 105.000 2 1004 0 0 0 21.1000 104.700 1 23 1002 8 268
1978264N08147 1978 96 WP MM LOLA 1978-10-03 15:00:00 TS 21.5073 104.484 main 0 0 _PP___________ 22.0148 104.655 2 1005 0 0 20.9998 104.312 1 23 1002 6 268
1978264N08147 1978 96 WP MM LOLA 1978-10-03 18:00:00 TS 21.5286 104.229 1006 tokyo main 0 0 _OO___________ 22.0000 104.400 2 1006 0 0 0 20.9000 104.000 1 23 1002 4 284
1978264N08147 1978 96 WP MM LOLA 1978-10-03 21:00:00 TS 21.6124 104.041 main 0 0 _PP___________ 21.9999 104.193 2 1006 0 0 20.8376 103.738 1 23 1002 4 307
1978264N08147 1978 96 WP MM LOLA 1978-10-04 00:00:00 TS 21.7600 103.900 1006 tokyo main 0 0 _OO___________ 22.0000 104.000 2 1006 0 0 0 20.8000 103.500 1 23 1002 5 326
1978264N08147 1978 96 WP MM LOLA 1978-10-04 03:00:00 TS 22.0000 103.758 main 0 0 _P____________ 22.0000 103.758 2 1006 0 0 1 4 303
1978264N08147 1978 96 WP MM LOLA 1978-10-04 06:00:00 TS 22.0000 103.500 1006 tokyo main 0 0 _O____________ 22.0000 103.500 2 1006 0 0 0 5 270
1978264N08147 1978 96 WP MM LOLA 1978-10-04 09:00:00 TS 22.0000 103.250 main 0 0 _P____________ 22.0000 103.250 2 1006 0 0 5 270
1978264N08147 1978 96 WP MM LOLA 1978-10-04 12:00:00 TS 22.0000 103.000 1006 tokyo main 0 0 _O____________ 22.0000 103.000 2 1006 0 0 0 5 270
1978264N08147 1978 96 WP MM LOLA 1978-10-04 15:00:00 TS 22.0000 102.750 main 0 0 _P____________ 22.0000 102.750 2 1006 0 0 5 270
1978264N08147 1978 96 WP MM LOLA 1978-10-04 18:00:00 TS 22.0000 102.500 1006 tokyo main 0 0 _O____________ 22.0000 102.500 2 1006 0 0 0 5 270
1978264N08147 1978 96 WP MM LOLA 1978-10-04 21:00:00 TS 22.0001 102.250 main 0 0 _P____________ 22.0001 102.250 2 1007 0 0 5 270
1978264N08147 1978 96 WP MM LOLA 1978-10-05 00:00:00 TS 22.0000 102.000 1008 tokyo main 0 _O____________ 22.0000 102.000 2 1008 0 0 0 5 270

デジタル台風データ・検索

IBTrACS Databaseについて

本データベースは、米国NOAAが公開する1842年以降の世界の熱帯低気圧のベストトラックデータアーカイブInternational Best Track Archive for Climate Stewardship (IBTrACS)を、ウェブで閲覧しやすい形式に変換したものです。

最終更新日:2021-11-26